Time;durP1;ratioP1;P1;durP2;ratioP2;P2;SDS_P1;SDS_P2;PMS_P1;PMS_P2;Temp;Humidity;BMP_temperature;BMP_pressure;BME280_temperature;BME280_humidity;BME280_pressure;Samples;Min_cycle;Max_cycle;Signal;HPM_P1;HPM_P2
2023/12/01 00:02:24;;;;;;;3.30;1.42;;;0.30;99.90;;;;;;5059227;28;20424;-45
2023/12/01 00:04:49;;;;;;;5.18;1.60;;;0.30;99.90;;;;;;5051561;28;20061;-44
2023/12/01 00:07:15;;;;;;;2.40;1.40;;;0.20;99.90;;;;;;5059047;28;20048;-45
2023/12/01 00:09:41;;;;;;;6.53;1.70;;;0.20;99.90;;;;;;5072091;28;20028;-44
2023/12/01 00:12:07;;;;;;;2.05;1.17;;;0.10;99.90;;;;;;5071658;28;20031;-45
2023/12/01 00:14:33;;;;;;;3.22;1.60;;;0.10;99.90;;;;;;5071399;28;20600;-44
2023/12/01 00:16:59;;;;;;;3.22;1.38;;;0.00;99.90;;;;;;5071579;28;20100;-44
2023/12/01 00:19:25;;;;;;;2.25;1.27;;;0.00;99.90;;;;;;5071404;28;20465;-45
2023/12/01 00:21:50;;;;;;;7.90;1.45;;;0.00;99.90;;;;;;5070721;28;20029;-45
2023/12/01 00:24:16;;;;;;;3.05;1.35;;;-0.10;99.90;;;;;;5071446;28;20056;-45
2023/12/01 00:26:42;;;;;;;3.83;1.42;;;-0.10;99.90;;;;;;5071654;28;20036;-45
2023/12/01 00:29:07;;;;;;;3.60;1.58;;;-0.20;99.90;;;;;;5071421;28;20032;-45
2023/12/01 00:31:33;;;;;;;3.97;1.60;;;-0.20;99.90;;;;;;5071427;28;20054;-45
2023/12/01 00:34:00;;;;;;;4.55;2.10;;;-0.30;99.90;;;;;;5071526;28;20051;-45
2023/12/01 00:36:25;;;;;;;4.78;2.03;;;-0.30;99.90;;;;;;5071442;28;20111;-44
2023/12/01 00:38:51;;;;;;;4.72;2.03;;;-0.40;99.90;;;;;;5071025;28;20127;-45
2023/12/01 00:41:17;;;;;;;7.25;1.95;;;-0.40;99.90;;;;;;5071257;28;20028;-44
2023/12/01 00:43:42;;;;;;;7.20;2.60;;;-0.40;99.90;;;;;;5070950;28;20021;-47
2023/12/01 00:46:08;;;;;;;6.15;2.80;;;-0.40;99.90;;;;;;5071128;28;20132;-44
2023/12/01 00:48:34;;;;;;;3.55;1.80;;;-0.50;99.90;;;;;;5071208;28;20449;-45
2023/12/01 00:51:01;;;;;;;6.38;2.15;;;-0.50;99.90;;;;;;5071200;28;20096;-44
2023/12/01 00:53:27;;;;;;;3.85;2.08;;;-0.50;99.90;;;;;;5070937;28;20485;-44
2023/12/01 00:55:53;;;;;;;4.43;1.90;;;-0.60;99.90;;;;;;5071010;28;20127;-44
2023/12/01 00:58:19;;;;;;;4.15;1.65;;;-0.60;99.90;;;;;;5052833;28;20024;-44
2023/12/01 01:00:44;;;;;;;7.80;1.92;;;-0.60;99.90;;;;;;5070822;28;20077;-45
2023/12/01 01:03:10;;;;;;;4.28;1.52;;;-0.60;99.90;;;;;;5070835;28;20032;-45
2023/12/01 01:05:36;;;;;;;3.70;1.58;;;-0.60;99.90;;;;;;5070685;28;20026;-45
2023/12/01 01:08:01;;;;;;;5.38;1.60;;;-0.60;99.90;;;;;;5070716;28;20545;-47
2023/12/01 01:10:27;;;;;;;3.35;1.60;;;-0.50;99.90;;;;;;5070617;28;20029;-44
2023/12/01 01:12:52;;;;;;;3.28;1.52;;;-0.50;99.90;;;;;;5070495;28;20035;-44
2023/12/01 01:15:18;;;;;;;6.75;1.67;;;-0.50;99.90;;;;;;5070688;28;20116;-44
2023/12/01 01:17:44;;;;;;;4.10;1.50;;;-0.50;99.90;;;;;;5070446;28;20043;-45
2023/12/01 01:20:10;;;;;;;2.28;1.48;;;-0.60;99.90;;;;;;5070481;28;20397;-43
2023/12/01 01:22:39;;;;;;;7.07;1.55;;;-0.60;99.90;;;;;;5070173;28;20082;-46
2023/12/01 01:25:05;;;;;;;3.22;1.30;;;-0.60;99.90;;;;;;5069930;28;20036;-45
2023/12/01 01:27:31;;;;;;;6.78;1.63;;;-0.60;99.90;;;;;;5069898;28;20027;-45
2023/12/01 01:29:57;;;;;;;3.67;1.50;;;-0.60;99.90;;;;;;5070035;28;20104;-45
2023/12/01 01:32:23;;;;;;;9.77;1.55;;;-0.60;99.90;;;;;;5070454;28;20063;-44
2023/12/01 01:34:50;;;;;;;3.45;1.23;;;-0.60;99.90;;;;;;5070115;28;20072;-45
2023/12/01 01:37:15;;;;;;;6.68;1.70;;;-0.60;99.90;;;;;;5070123;28;20090;-45
2023/12/01 01:39:41;;;;;;;3.67;1.58;;;-0.60;99.90;;;;;;5070041;28;20024;-45
2023/12/01 01:42:07;;;;;;;3.10;1.13;;;-0.60;99.90;;;;;;5070109;28;20038;-43
2023/12/01 01:44:32;;;;;;;6.13;1.55;;;-0.70;99.90;;;;;;5070069;28;20023;-43
2023/12/01 01:46:59;;;;;;;4.65;1.75;;;-0.80;99.90;;;;;;5070156;28;20025;-44
2023/12/01 01:49:27;;;;;;;4.30;1.60;;;-0.80;99.90;;;;;;5069653;28;20028;-43
2023/12/01 01:51:54;;;;;;;2.75;1.08;;;-0.90;99.90;;;;;;5069962;28;20028;-43
2023/12/01 01:54:23;;;;;;;3.67;1.40;;;-1.00;99.90;;;;;;5070147;28;20119;-43
2023/12/01 01:56:51;;;;;;;5.10;1.77;;;-1.00;99.90;;;;;;5069920;28;20028;-43
2023/12/01 01:59:20;;;;;;;3.88;1.35;;;-1.10;99.90;;;;;;5051987;28;20039;-43
2023/12/01 02:01:49;;;;;;;2.95;1.42;;;-1.10;99.90;;;;;;5069941;28;20021;-43
2023/12/01 02:04:16;;;;;;;3.22;1.60;;;-1.10;99.90;;;;;;5069664;28;20029;-43
2023/12/01 02:06:41;;;;;;;4.18;1.70;;;-1.20;99.90;;;;;;5069820;28;20028;-43
2023/12/01 02:09:07;;;;;;;5.43;1.85;;;-1.30;99.90;;;;;;5069676;28;20293;-44
2023/12/01 02:11:33;;;;;;;5.10;1.60;;;-1.20;99.90;;;;;;5069982;28;20017;-44
2023/12/01 02:13:59;;;;;;;4.50;1.77;;;-1.30;99.90;;;;;;5069589;28;20029;-43
2023/12/01 02:16:25;;;;;;;2.38;1.40;;;-1.30;99.90;;;;;;5071089;28;20047;-43
2023/12/01 02:18:54;;;;;;;3.40;1.60;;;-1.20;99.90;;;;;;5074226;28;20086;-43
2023/12/01 02:21:27;;;;;;;5.32;2.13;;;-1.20;99.90;;;;;;5073878;28;20040;-44
2023/12/01 02:23:54;;;;;;;3.63;1.95;;;-1.10;99.90;;;;;;5073711;28;20078;-43
2023/12/01 02:26:20;;;;;;;2.67;1.48;;;-1.00;99.90;;;;;;5073899;28;20029;-43
2023/12/01 02:28:47;;;;;;;7.95;1.83;;;-0.90;99.90;;;;;;5073763;28;20049;-43
2023/12/01 02:31:13;;;;;;;2.75;1.45;;;-0.80;99.90;;;;;;5073896;28;20046;-44
2023/12/01 02:33:39;;;;;;;4.63;1.90;;;-0.80;99.90;;;;;;5073486;28;20473;-43
2023/12/01 02:36:06;;;;;;;4.55;2.20;;;-0.70;99.90;;;;;;5073660;28;20036;-43
2023/12/01 02:38:32;;;;;;;5.35;1.50;;;-0.60;99.90;;;;;;5073009;28;20071;-43
2023/12/01 02:40:58;;;;;;;3.35;1.63;;;-0.50;99.90;;;;;;5073705;28;20028;-43
2023/12/01 02:43:24;;;;;;;3.55;1.52;;;-0.50;99.90;;;;;;5073081;28;20032;-44
2023/12/01 02:45:50;;;;;;;4.47;1.88;;;-0.60;99.90;;;;;;5073461;28;20025;-44
2023/12/01 02:48:16;;;;;;;4.15;2.05;;;-0.60;99.90;;;;;;5073218;28;20025;-44
2023/12/01 02:50:42;;;;;;;5.68;2.10;;;-0.60;99.90;;;;;;5055347;28;20107;-43
2023/12/01 02:53:08;;;;;;;4.07;1.92;;;-0.60;99.90;;;;;;5073285;28;20029;-43
2023/12/01 02:55:34;;;;;;;3.58;1.75;;;-0.70;99.90;;;;;;5073170;28;20509;-43
2023/12/01 02:58:00;;;;;;;6.97;2.30;;;-0.70;99.90;;;;;;5073460;28;20389;-43
2023/12/01 03:00:26;;;;;;;4.90;2.03;;;-0.80;99.90;;;;;;5072935;28;20040;-43
2023/12/01 03:02:52;;;;;;;2.67;1.60;;;-0.80;99.90;;;;;;5073328;28;20017;-43
2023/12/01 03:05:19;;;;;;;6.90;2.08;;;-0.80;99.90;;;;;;5073080;28;20032;-44
2023/12/01 03:07:46;;;;;;;3.70;1.60;;;-0.90;99.90;;;;;;5073125;28;20017;-45
2023/12/01 03:10:12;;;;;;;3.97;1.85;;;-0.90;99.90;;;;;;5073204;28;20441;-43
2023/12/01 03:12:39;;;;;;;3.92;2.10;;;-0.90;99.90;;;;;;5071009;28;20431;-43
2023/12/01 03:15:12;;;;;;;4.97;2.28;;;-0.90;99.90;;;;;;5072868;28;20040;-43
2023/12/01 03:17:39;;;;;;;7.53;2.60;;;-0.90;99.90;;;;;;5070468;28;20489;-43
2023/12/01 03:20:14;;;;;;;7.13;1.98;;;-0.90;99.90;;;;;;5043085;28;20025;-43
2023/12/01 03:22:41;;;;;;;6.25;2.40;;;-0.90;99.90;;;;;;5064621;28;20029;-43
2023/12/01 03:25:09;;;;;;;5.15;1.70;;;-1.00;99.90;;;;;;5067430;28;20036;-43
2023/12/01 03:27:41;;;;;;;3.88;1.80;;;-1.00;99.90;;;;;;5072132;28;20024;-43
2023/12/01 03:30:15;;;;;;;6.55;2.72;;;-1.00;99.90;;;;;;5072349;28;20373;-43
2023/12/01 03:33:00;;;;;;;6.03;2.65;;;-0.80;99.90;;;;;;5052587;28;20025;-43
2023/12/01 03:35:26;;;;;;;4.35;2.10;;;-0.70;99.90;;;;;;5053363;28;20045;-44
2023/12/01 03:37:56;;;;;;;4.85;2.30;;;-0.80;99.90;;;;;;5072627;28;20409;-43
2023/12/01 03:40:22;;;;;;;6.97;2.08;;;-0.80;99.90;;;;;;5072252;28;20028;-43
2023/12/01 03:42:49;;;;;;;6.13;2.05;;;-0.80;99.90;;;;;;5072497;28;20401;-43
2023/12/01 03:45:15;;;;;;;4.65;2.75;;;-0.80;99.90;;;;;;5072590;28;20028;-46
2023/12/01 03:47:51;;;;;;;3.00;1.98;;;-0.80;99.90;;;;;;5068874;28;20024;-43
2023/12/01 03:50:18;;;;;;;6.10;2.30;;;-0.70;99.90;;;;;;5063187;28;20035;-43
2023/12/01 03:52:45;;;;;;;5.05;2.28;;;-0.80;99.90;;;;;;5072126;28;20020;-43
2023/12/01 03:55:13;;;;;;;6.53;2.33;;;-0.80;99.90;;;;;;5072077;28;20029;-43
2023/12/01 03:57:40;;;;;;;5.05;2.17;;;-0.70;99.90;;;;;;5071950;28;20555;-43
2023/12/01 04:00:16;;;;;;;6.63;1.90;;;-0.70;99.90;;;;;;5072095;28;20036;-43
2023/12/01 04:02:44;;;;;;;4.03;1.77;;;-0.70;99.90;;;;;;5071487;28;20020;-43
2023/12/01 04:05:19;;;;;;;4.22;1.80;;;-0.80;99.90;;;;;;5071824;28;20035;-43
2023/12/01 04:07:45;;;;;;;6.10;2.20;;;-0.80;99.90;;;;;;5071816;28;20458;-43
2023/12/01 04:10:11;;;;;;;3.78;1.95;;;-0.90;99.90;;;;;;5071709;28;20416;-43
2023/12/01 04:12:44;;;;;;;3.28;1.65;;;-0.90;99.90;;;;;;5071548;28;20496;-43
2023/12/01 04:15:16;;;;;;;5.78;2.45;;;-0.90;99.90;;;;;;5071304;28;20111;-43
2023/12/01 04:17:43;;;;;;;4.43;2.08;;;-0.90;99.90;;;;;;5071482;28;20025;-43
2023/12/01 04:20:26;;;;;;;4.03;1.83;;;-1.00;99.90;;;;;;5071205;28;20109;-43
2023/12/01 04:22:55;;;;;;;4.72;2.10;;;-1.00;99.90;;;;;;5041423;28;20064;-43
2023/12/01 04:25:21;;;;;;;3.28;1.75;;;-1.00;99.90;;;;;;5070207;28;20021;-43
2023/12/01 04:27:47;;;;;;;6.95;2.15;;;-1.00;99.90;;;;;;5071489;28;20025;-43
2023/12/01 04:30:17;;;;;;;3.58;1.90;;;-1.10;99.90;;;;;;5071323;28;20082;-43
2023/12/01 04:32:52;;;;;;;2.97;1.60;;;-1.20;99.90;;;;;;5071373;28;20520;-44
2023/12/01 04:35:19;;;;;;;3.70;1.92;;;-1.20;99.90;;;;;;5070773;28;20052;-43
2023/12/01 04:37:45;;;;;;;4.10;1.90;;;-1.30;99.90;;;;;;5071299;28;20037;-43
2023/12/01 04:40:17;;;;;;;3.53;1.88;;;-1.30;99.90;;;;;;5070244;28;20024;-43
2023/12/01 04:42:47;;;;;;;4.70;2.15;;;-1.40;99.90;;;;;;5052960;28;20111;-43
2023/12/01 04:45:16;;;;;;;4.45;2.10;;;-1.50;99.90;;;;;;5070671;28;20511;-43
2023/12/01 04:47:43;;;;;;;4.85;1.40;;;-1.50;99.90;;;;;;5070676;28;20017;-43
2023/12/01 04:50:12;;;;;;;8.60;2.47;;;-1.50;99.90;;;;;;5071022;28;20074;-44
2023/12/01 04:52:53;;;;;;;5.78;1.73;;;-1.50;99.90;;;;;;5070913;28;20028;-43
2023/12/01 04:55:20;;;;;;;3.90;2.13;;;-1.50;99.90;;;;;;5070778;28;20058;-43
2023/12/01 04:57:47;;;;;;;6.43;2.28;;;-1.50;99.90;;;;;;5070596;28;20020;-43
2023/12/01 05:00:21;;;;;;;6.50;2.15;;;-1.40;99.90;;;;;;5070551;28;20476;-43
2023/12/01 05:02:53;;;;;;;3.85;1.65;;;-1.40;99.90;;;;;;5070268;28;20028;-43
2023/12/01 05:05:20;;;;;;;5.25;2.28;;;-1.40;99.90;;;;;;5071072;28;20038;-43
2023/12/01 05:07:49;;;;;;;4.43;1.85;;;-1.40;99.90;;;;;;5070581;28;20049;-43
2023/12/01 05:10:16;;;;;;;6.10;2.53;;;-1.40;99.90;;;;;;5070491;28;20362;-43
2023/12/01 05:12:43;;;;;;;4.57;2.10;;;-1.40;99.90;;;;;;5070199;28;20029;-43
2023/12/01 05:15:15;;;;;;;4.65;2.38;;;-1.40;99.90;;;;;;5070616;28;20040;-43
2023/12/01 05:18:02;;;;;;;4.50;2.50;;;-1.40;99.90;;;;;;5070584;28;20028;-43
2023/12/01 05:20:28;;;;;;;5.25;1.92;;;-1.30;99.90;;;;;;5070047;28;20501;-43
2023/12/01 05:22:56;;;;;;;3.67;1.92;;;-1.40;99.90;;;;;;5057877;28;20029;-43
2023/12/01 05:25:25;;;;;;;6.72;3.28;;;-1.30;99.90;;;;;;5068725;28;20485;-43
2023/12/01 05:27:58;;;;;;;5.35;2.22;;;-1.30;99.90;;;;;;5070367;28;20038;-43
2023/12/01 05:30:26;;;;;;;4.20;2.35;;;-1.30;99.90;;;;;;5069915;28;20016;-43
2023/12/01 05:32:53;;;;;;;5.25;2.35;;;-1.30;99.90;;;;;;5070234;28;20032;-42
2023/12/01 05:35:19;;;;;;;6.43;3.33;;;-1.40;99.90;;;;;;5069874;28;20036;-43
2023/12/01 05:37:49;;;;;;;6.22;3.38;;;-1.30;99.90;;;;;;5070088;28;20119;-42
2023/12/01 05:40:20;;;;;;;7.03;2.88;;;-1.40;99.90;;;;;;5070091;28;20059;-43
2023/12/01 05:42:47;;;;;;;8.15;3.28;;;-1.30;99.90;;;;;;5069881;28;20528;-43
2023/12/01 05:45:14;;;;;;;6.78;2.75;;;-1.40;99.90;;;;;;5070286;28;20033;-42
2023/12/01 05:47:45;;;;;;;7.78;2.95;;;-1.40;99.90;;;;;;5070116;28;20044;-42
2023/12/01 05:50:15;;;;;;;7.03;3.38;;;-1.40;99.90;;;;;;5069662;28;20497;-43
2023/12/01 05:52:45;;;;;;;6.22;2.97;;;-1.40;99.90;;;;;;5069756;28;20001;-44
2023/12/01 05:55:16;;;;;;;5.55;3.35;;;-1.40;99.90;;;;;;5069930;28;20032;-43
2023/12/01 05:57:45;;;;;;;7.65;3.20;;;-1.30;99.90;;;;;;5069626;28;20017;-43
2023/12/01 06:00:15;;;;;;;8.48;3.20;;;-1.30;99.90;;;;;;5069717;28;20020;-43
2023/12/01 06:02:43;;;;;;;9.60;3.40;;;-1.30;99.90;;;;;;5069702;28;20465;-43
2023/12/01 06:05:11;;;;;;;8.90;3.22;;;-1.30;99.90;;;;;;5070072;28;20115;-43
2023/12/01 06:07:37;;;;;;;7.38;3.67;;;-1.20;99.90;;;;;;5069750;28;20100;-43
2023/12/01 06:10:05;;;;;;;6.93;3.20;;;-1.30;99.90;;;;;;5070272;28;20107;-43
2023/12/01 06:12:32;;;;;;;11.68;3.30;;;-1.20;99.90;;;;;;5051691;28;20116;-44
2023/12/01 06:14:58;;;;;;;5.15;3.20;;;-1.20;99.90;;;;;;5069766;28;20020;-44
2023/12/01 06:17:24;;;;;;;6.22;3.25;;;-1.20;99.90;;;;;;5069883;28;20025;-44
2023/12/01 06:19:49;;;;;;;9.20;3.90;;;-1.20;99.90;;;;;;5069394;28;20478;-44
2023/12/01 06:22:15;;;;;;;7.60;3.17;;;-1.20;99.90;;;;;;5062612;28;20116;-44
2023/12/01 06:24:41;;;;;;;7.45;3.13;;;-1.20;99.90;;;;;;5063038;28;20069;-44
2023/12/01 06:27:07;;;;;;;11.70;3.78;;;-1.20;99.90;;;;;;5069680;28;20118;-44
2023/12/01 06:29:34;;;;;;;9.20;3.80;;;-1.20;99.90;;;;;;5069503;28;20071;-44
2023/12/01 06:32:00;;;;;;;5.88;2.53;;;-1.10;99.90;;;;;;5069547;28;20021;-44
2023/12/01 06:34:26;;;;;;;7.93;3.13;;;-1.10;99.90;;;;;;5069636;28;20024;-44
2023/12/01 06:36:51;;;;;;;8.90;3.83;;;-1.10;99.90;;;;;;5069452;28;20416;-44
2023/12/01 06:39:17;;;;;;;7.88;3.67;;;-1.10;99.90;;;;;;5069843;28;20170;-43
2023/12/01 06:41:43;;;;;;;9.73;4.40;;;-1.00;99.90;;;;;;5069713;28;20024;-44
2023/12/01 06:44:09;;;;;;;7.28;3.40;;;-1.10;99.90;;;;;;5069737;28;20396;-44
2023/12/01 06:46:35;;;;;;;7.20;3.50;;;-1.00;99.90;;;;;;5069883;28;21166;-48
2023/12/01 06:49:01;;;;;;;8.18;3.78;;;-1.00;99.90;;;;;;5070573;28;20142;-46
2023/12/01 06:51:26;;;;;;;7.97;4.22;;;-1.00;99.90;;;;;;5069924;28;20056;-47
2023/12/01 06:53:52;;;;;;;14.23;4.20;;;-1.00;99.90;;;;;;5069402;28;20079;-44
2023/12/01 06:56:18;;;;;;;6.00;3.65;;;-1.00;99.90;;;;;;5069187;28;20094;-44
2023/12/01 06:58:43;;;;;;;7.45;3.28;;;-1.00;99.90;;;;;;5068972;28;20458;-44
2023/12/01 07:01:18;;;;;;;8.50;3.92;;;-1.00;99.90;;;;;;5069335;28;20495;-44
2023/12/01 07:03:44;;;;;;;8.90;3.45;;;-1.00;99.90;;;;;;5087187;28;20033;-44
2023/12/01 07:06:10;;;;;;;8.25;4.22;;;-1.00;99.90;;;;;;5073150;28;20027;-47
2023/12/01 07:08:36;;;;;;;8.52;3.33;;;-1.10;99.90;;;;;;5072791;28;20103;-46
2023/12/01 07:11:03;;;;;;;11.32;3.42;;;-1.20;99.90;;;;;;5073068;28;20083;-46
2023/12/01 07:13:29;;;;;;;6.95;3.83;;;-1.20;99.90;;;;;;5072264;28;20055;-45
2023/12/01 07:15:56;;;;;;;8.80;3.78;;;-1.20;99.90;;;;;;5072609;28;20075;-44
2023/12/01 07:18:21;;;;;;;7.60;4.50;;;-1.20;99.90;;;;;;5071919;28;20016;-45
2023/12/01 07:20:47;;;;;;;7.97;3.60;;;-1.30;99.90;;;;;;5071788;28;20128;-44
2023/12/01 07:23:13;;;;;;;6.45;3.47;;;-1.20;99.90;;;;;;5057848;28;20021;-44
2023/12/01 07:25:40;;;;;;;7.20;3.92;;;-1.30;99.90;;;;;;5072462;28;20090;-44
2023/12/01 07:28:08;;;;;;;6.90;3.70;;;-1.30;99.90;;;;;;5072139;28;20739;-45
2023/12/01 07:30:33;;;;;;;6.68;3.28;;;-1.40;99.90;;;;;;5072310;28;20016;-44
2023/12/01 07:33:01;;;;;;;6.15;3.03;;;-1.50;99.90;;;;;;5061238;28;20367;-44
2023/12/01 07:35:27;;;;;;;7.43;4.05;;;-1.50;99.90;;;;;;5052265;28;20029;-46
2023/12/01 07:37:53;;;;;;;8.52;4.63;;;-1.50;99.90;;;;;;5052591;28;20102;-48
2023/12/01 07:40:19;;;;;;;8.02;4.40;;;-1.60;99.90;;;;;;5053272;28;20478;-45
2023/12/01 07:42:48;;;;;;;10.45;5.13;;;-1.60;99.90;;;;;;5052828;28;20082;-44
2023/12/01 07:45:17;;;;;;;9.80;3.92;;;-1.50;99.90;;;;;;5053831;28;20089;-44
2023/12/01 07:47:47;;;;;;;10.02;4.28;;;-1.50;99.90;;;;;;5052931;28;20025;-45
2023/12/01 07:50:14;;;;;;;12.38;5.00;;;-1.50;99.90;;;;;;5061365;28;20033;-46
2023/12/01 07:52:44;;;;;;;13.43;5.20;;;-1.50;99.90;;;;;;5065066;28;20116;-44
2023/12/01 07:55:10;;;;;;;11.05;4.18;;;-1.50;99.90;;;;;;5069943;28;20043;-48
2023/12/01 07:57:36;;;;;;;10.82;4.38;;;-1.30;99.90;;;;;;5064885;28;20017;-49
2023/12/01 08:00:05;;;;;;;10.23;4.80;;;-1.30;99.90;;;;;;5061284;28;20033;-50
2023/12/01 08:02:31;;;;;;;9.80;4.80;;;-1.30;99.90;;;;;;5051566;28;20021;-44
2023/12/01 08:04:57;;;;;;;9.13;4.80;;;-1.20;99.90;;;;;;5058429;28;20087;-49
2023/12/01 08:07:22;;;;;;;8.75;4.53;;;-1.10;99.90;;;;;;5066304;28;20020;-45
2023/12/01 08:09:48;;;;;;;9.00;4.38;;;-1.00;99.90;;;;;;5051676;28;20058;-48
2023/12/01 08:12:18;;;;;;;14.10;4.97;;;-1.00;99.90;;;;;;5051778;28;20083;-51
2023/12/01 08:14:44;;;;;;;9.20;4.50;;;-0.80;99.90;;;;;;5050372;28;20065;-51
2023/12/01 08:17:10;;;;;;;9.38;4.47;;;-0.70;99.90;;;;;;5051309;28;20028;-45
2023/12/01 08:19:35;;;;;;;12.13;5.75;;;-0.60;99.90;;;;;;5051058;28;20414;-52
2023/12/01 08:22:01;;;;;;;13.32;5.07;;;-0.50;99.90;;;;;;5065258;28;20044;-50
2023/12/01 08:24:27;;;;;;;13.18;6.10;;;-0.30;99.90;;;;;;5062328;28;20032;-46
2023/12/01 08:26:52;;;;;;;12.75;5.25;;;-0.20;99.90;;;;;;5071142;28;20101;-49
2023/12/01 08:29:18;;;;;;;16.08;6.55;;;-0.10;99.90;;;;;;5068393;28;20021;-49
2023/12/01 08:31:45;;;;;;;10.20;5.38;;;0.00;99.90;;;;;;5057689;28;20401;-47
2023/12/01 08:34:15;;;;;;;13.57;5.55;;;0.10;99.90;;;;;;5051646;28;20029;-47
2023/12/01 08:36:42;;;;;;;14.07;4.93;;;0.20;99.90;;;;;;5050761;28;20493;-46
2023/12/01 08:39:09;;;;;;;12.27;5.28;;;0.40;99.90;;;;;;5050983;28;20029;-45
2023/12/01 08:41:36;;;;;;;14.55;5.65;;;0.40;99.90;;;;;;5052459;28;20430;-43
2023/12/01 08:44:02;;;;;;;15.63;6.40;;;0.60;99.90;;;;;;5050856;28;20390;-53
2023/12/01 08:46:32;;;;;;;12.50;6.25;;;0.80;99.90;;;;;;5050846;28;20044;-48
2023/12/01 08:49:01;;;;;;;15.23;6.18;;;0.90;99.90;;;;;;5048875;28;20076;-52
2023/12/01 08:51:27;;;;;;;13.27;5.32;;;0.90;99.90;;;;;;5048993;28;20495;-44
2023/12/01 08:53:54;;;;;;;14.38;5.93;;;1.00;99.90;;;;;;5065986;28;20028;-50
2023/12/01 08:56:23;;;;;;;12.75;5.55;;;1.10;99.90;;;;;;5058449;28;20101;-53
2023/12/01 08:58:50;;;;;;;14.43;5.88;;;1.20;99.90;;;;;;5048955;28;20021;-48
2023/12/01 09:01:17;;;;;;;12.02;4.68;;;1.30;99.90;;;;;;5050887;28;20032;-49
2023/12/01 09:03:43;;;;;;;14.27;5.80;;;1.30;99.90;;;;;;5051896;28;20021;-47
2023/12/01 09:06:09;;;;;;;14.63;5.78;;;1.50;99.90;;;;;;5056163;28;20025;-44
2023/12/01 09:08:34;;;;;;;12.98;6.65;;;1.70;99.90;;;;;;5069973;28;20028;-56
2023/12/01 09:11:00;;;;;;;12.73;5.50;;;2.00;99.90;;;;;;5054303;28;20517;-48
2023/12/01 09:13:27;;;;;;;11.02;5.05;;;2.10;99.90;;;;;;5054468;28;20092;-50
2023/12/01 09:15:53;;;;;;;11.45;5.30;;;2.10;99.90;;;;;;5049925;28;20498;-50
2023/12/01 09:18:18;;;;;;;10.35;5.00;;;2.30;99.90;;;;;;5050020;28;20055;-52
2023/12/01 09:20:44;;;;;;;10.52;5.15;;;2.50;99.90;;;;;;5058698;28;20173;-49
2023/12/01 09:23:09;;;;;;;12.07;5.88;;;2.90;99.90;;;;;;5059525;28;20047;-50
2023/12/01 09:25:35;;;;;;;8.55;4.80;;;3.20;99.90;;;;;;5035426;28;20109;-44
2023/12/01 09:28:01;;;;;;;11.02;5.35;;;3.40;99.90;;;;;;5049560;28;20068;-50
2023/12/01 09:30:26;;;;;;;11.48;4.93;;;3.50;99.90;;;;;;5052773;28;20390;-46
2023/12/01 09:32:52;;;;;;;10.43;5.43;;;3.60;99.90;;;;;;5059346;28;20036;-49
2023/12/01 09:35:19;;;;;;;10.60;4.78;;;3.40;99.90;;;;;;5052831;28;20060;-52
2023/12/01 09:37:45;;;;;;;10.45;4.85;;;3.40;99.90;;;;;;5059734;28;20093;-54
2023/12/01 09:40:11;;;;;;;10.68;5.25;;;3.30;99.90;;;;;;5048534;28;20020;-48
2023/12/01 09:42:39;;;;;;;9.90;5.35;;;3.30;99.90;;;;;;5050275;28;20122;-55
2023/12/01 09:45:05;;;;;;;9.80;4.75;;;3.40;99.90;;;;;;5049023;28;20023;-47
2023/12/01 09:47:33;;;;;;;11.20;4.97;;;3.60;99.90;;;;;;5082343;28;20020;-55
2023/12/01 09:50:00;;;;;;;9.30;5.13;;;3.90;99.90;;;;;;5056036;28;20151;-52
2023/12/01 09:52:26;;;;;;;11.23;5.05;;;4.20;99.90;;;;;;5046383;28;20020;-46
2023/12/01 09:54:52;;;;;;;12.18;4.97;;;5.10;99.90;;;;;;5046894;28;20397;-47
2023/12/01 09:57:20;;;;;;;8.70;4.63;;;6.90;99.90;;;;;;5046460;28;20074;-53
2023/12/01 09:59:47;;;;;;;8.35;4.45;;;8.00;99.90;;;;;;5046623;28;20025;-51
2023/12/01 10:02:13;;;;;;;9.57;4.43;;;8.10;99.90;;;;;;5047021;28;20013;-53
2023/12/01 10:04:39;;;;;;;13.20;5.10;;;7.40;99.90;;;;;;5047965;28;20025;-48
2023/12/01 10:07:05;;;;;;;7.95;4.38;;;6.90;99.90;;;;;;5050010;28;20036;-53
2023/12/01 10:09:35;;;;;;;7.65;4.05;;;6.50;99.90;;;;;;5049688;28;20386;-47
2023/12/01 10:12:12;;;;;;;8.00;4.43;;;6.10;99.90;;;;;;5049719;28;20029;-47
2023/12/01 10:14:41;;;;;;;12.40;4.88;;;6.80;99.90;;;;;;5049407;28;20021;-51
2023/12/01 10:17:08;;;;;;;10.05;4.65;;;6.80;99.90;;;;;;5049599;28;20033;-46
2023/12/01 10:19:44;;;;;;;11.27;4.70;;;6.50;99.90;;;;;;5049376;28;20090;-47
2023/12/01 10:22:11;;;;;;;8.43;4.00;;;6.20;99.90;;;;;;5049530;28;20047;-54
2023/12/01 10:24:37;;;;;;;7.05;3.85;;;5.60;99.90;;;;;;5062299;28;20031;-55
2023/12/01 10:27:05;;;;;;;9.27;4.53;;;5.40;99.90;;;;;;5059855;28;20029;-52
2023/12/01 10:29:34;;;;;;;9.73;4.85;;;4.90;99.90;;;;;;5049384;28;20021;-46
2023/12/01 10:32:11;;;;;;;11.35;4.65;;;4.50;99.90;;;;;;5068137;28;20453;-47
2023/12/01 10:34:37;;;;;;;9.48;4.60;;;4.40;99.90;;;;;;5065248;28;20028;-50
2023/12/01 10:37:03;;;;;;;9.52;4.88;;;4.20;99.90;;;;;;5070013;28;20158;-52
2023/12/01 10:39:29;;;;;;;11.43;5.38;;;4.10;99.90;;;;;;5073560;28;20559;-53
2023/12/01 10:41:58;;;;;;;9.82;5.50;;;4.00;99.90;;;;;;5073415;28;20028;-46
2023/12/01 10:44:28;;;;;;;10.05;5.28;;;3.90;99.90;;;;;;5073432;28;20048;-44
2023/12/01 10:46:54;;;;;;;7.95;4.15;;;4.00;99.90;;;;;;5073646;28;20032;-47
2023/12/01 10:49:21;;;;;;;9.98;4.82;;;4.00;99.90;;;;;;5073407;28;20499;-54
2023/12/01 10:51:54;;;;;;;11.55;5.13;;;3.90;99.90;;;;;;5073281;28;20030;-55
2023/12/01 10:54:23;;;;;;;11.35;4.53;;;3.80;99.90;;;;;;5073096;28;20115;-45
2023/12/01 10:57:07;;;;;;;11.47;4.83;;;3.90;99.90;;;;;;5069669;28;20028;-48
2023/12/01 10:59:34;;;;;;;10.48;5.00;;;3.90;99.90;;;;;;5071838;28;20024;-43
2023/12/01 11:02:01;;;;;;;13.73;5.95;;;3.80;99.90;;;;;;5071234;28;20104;-44
2023/12/01 11:04:27;;;;;;;12.55;5.35;;;3.90;99.90;;;;;;5052753;28;20029;-46
2023/12/01 11:07:21;;;;;;;10.73;5.07;;;3.90;99.90;;;;;;5056571;28;20044;-44
2023/12/01 11:10:32;;;;;;;8.77;4.85;;;4.10;99.90;;;;;;5071630;28;20090;-44
2023/12/01 11:13:18;;;;;;;12.52;4.07;;;3.80;99.90;;;;;;5063688;28;20476;-44
2023/12/01 11:15:46;;;;;;;11.25;4.75;;;3.90;99.90;;;;;;5063932;28;20039;-49
2023/12/01 11:18:11;;;;;;;11.52;5.45;;;3.90;99.90;;;;;;5056799;28;20021;-44
2023/12/01 11:20:46;;;;;;;10.35;5.18;;;3.80;99.90;;;;;;5068766;28;20129;-44
2023/12/01 11:23:12;;;;;;;10.40;5.40;;;3.80;99.90;;;;;;5062840;28;20474;-50
2023/12/01 11:25:48;;;;;;;12.65;5.28;;;3.90;99.90;;;;;;5051434;28;20024;-50
2023/12/01 11:28:27;;;;;;;10.85;4.65;;;3.80;99.90;;;;;;5056618;28;20067;-47
2023/12/01 11:31:09;;;;;;;9.60;5.25;;;3.70;99.90;;;;;;5059755;28;21423;-47
2023/12/01 11:33:53;;;;;;;14.55;4.82;;;3.50;99.90;;;;;;5055355;28;20439;-44
2023/12/01 11:36:32;;;;;;;7.80;4.07;;;3.50;99.90;;;;;;5050757;28;20103;-48
2023/12/01 11:39:16;;;;;;;9.90;5.00;;;3.60;99.90;;;;;;5011101;28;20050;-51
2023/12/01 11:41:45;;;;;;;9.60;5.07;;;3.60;99.90;;;;;;5011271;28;20037;-45
2023/12/01 11:44:18;;;;;;;10.75;4.88;;;3.70;99.90;;;;;;5011705;28;20447;-46
2023/12/01 11:46:55;;;;;;;12.55;5.80;;;3.70;99.90;;;;;;5012303;28;20087;-45
2023/12/01 11:49:23;;;;;;;9.45;5.82;;;3.80;99.90;;;;;;5012651;28;20026;-47
2023/12/01 11:51:49;;;;;;;11.35;5.05;;;3.70;99.90;;;;;;5015301;28;20030;-46
2023/12/01 11:54:15;;;;;;;12.02;5.95;;;3.60;99.90;;;;;;5025319;28;20025;-48
2023/12/01 11:56:47;;;;;;;8.77;4.53;;;3.60;99.90;;;;;;5032280;28;20059;-51
2023/12/01 11:59:17;;;;;;;8.48;4.88;;;3.60;99.90;;;;;;5032570;28;20506;-50
2023/12/01 12:01:46;;;;;;;;;;;3.70;99.90;;;;;;5032701;28;20017;-45
2023/12/01 12:04:16;;;;;;;13.05;5.15;;;3.80;99.90;;;;;;5032393;28;20456;-50
2023/12/01 12:06:47;;;;;;;9.20;5.20;;;4.00;99.90;;;;;;5032276;28;20021;-47
2023/12/01 12:09:17;;;;;;;10.75;5.10;;;4.10;99.90;;;;;;5032304;28;20036;-48
2023/12/01 12:11:59;;;;;;;10.95;6.05;;;4.20;99.90;;;;;;5032254;28;20049;-46
2023/12/01 12:14:27;;;;;;;13.57;5.13;;;4.10;99.90;;;;;;5031941;28;20037;-53
2023/12/01 12:16:57;;;;;;;9.93;4.65;;;4.20;99.90;;;;;;5032251;28;20021;-43
2023/12/01 12:19:26;;;;;;;8.55;4.88;;;4.10;99.90;;;;;;5031938;28;20021;-46
2023/12/01 12:21:56;;;;;;;14.13;6.25;;;4.20;99.90;;;;;;5027797;28;20030;-49
2023/12/01 12:24:23;;;;;;;8.90;4.45;;;4.20;99.90;;;;;;5022712;28;20502;-45
2023/12/01 12:26:58;;;;;;;9.40;4.90;;;4.20;99.90;;;;;;5031861;28;20490;-51
2023/12/01 12:29:25;;;;;;;10.30;5.03;;;4.20;99.90;;;;;;5031489;28;20053;-45
2023/12/01 12:31:51;;;;;;;12.68;5.40;;;4.30;99.90;;;;;;5031751;28;20383;-48
2023/12/01 12:34:18;;;;;;;9.25;5.20;;;4.40;99.90;;;;;;5031772;28;20372;-46
2023/12/01 12:36:46;;;;;;;12.32;5.70;;;4.50;99.90;;;;;;5034924;28;20044;-46
2023/12/01 12:39:16;;;;;;;10.35;5.40;;;4.60;99.90;;;;;;5071695;28;20040;-48
2023/12/01 12:41:49;;;;;;;12.85;5.68;;;4.90;99.90;;;;;;5071619;28;20029;-47
2023/12/01 12:44:15;;;;;;;12.10;6.00;;;5.10;99.90;;;;;;5071686;28;20032;-46
2023/12/01 12:46:41;;;;;;;14.02;6.25;;;5.20;99.90;;;;;;5071440;28;20017;-46
2023/12/01 12:49:09;;;;;;;12.93;6.10;;;5.60;99.90;;;;;;5071302;28;20516;-49
2023/12/01 12:51:35;;;;;;;14.85;6.05;;;5.80;99.90;;;;;;5071363;28;20075;-45
2023/12/01 12:54:01;;;;;;;14.27;6.60;;;6.00;99.90;;;;;;5071241;28;20109;-44